createdAt,value
2018-03-26T00:00:49.719Z,7.61
2018-03-26T00:01:49.708Z,7.58
2018-03-26T00:02:49.698Z,7.54
2018-03-26T00:03:49.644Z,7.59
2018-03-26T00:04:49.629Z,7.63
2018-03-26T00:05:49.582Z,7.49
2018-03-26T00:06:49.569Z,7.49
2018-03-26T00:07:49.544Z,7.45
2018-03-26T00:08:49.500Z,7.49
2018-03-26T00:09:49.475Z,7.52
2018-03-26T00:10:49.469Z,7.61
2018-03-26T00:11:49.417Z,7.58
2018-03-26T00:12:49.394Z,7.68
2018-03-26T00:13:49.386Z,7.59
2018-03-26T00:14:49.341Z,7.63
2018-03-26T00:15:49.311Z,7.63
2018-03-26T00:16:49.291Z,7.58
2018-03-26T00:17:49.249Z,7.56
2018-03-26T00:18:49.229Z,7.44
2018-03-26T00:19:49.199Z,7.54
2018-03-26T00:20:49.174Z,7.48
2018-03-26T00:21:49.154Z,7.48
2018-03-26T00:22:49.139Z,7.45
2018-03-26T00:23:49.085Z,7.54
2018-03-26T00:24:49.058Z,7.55
2018-03-26T00:25:49.050Z,7.51
2018-03-26T00:26:49.001Z,7.48
2018-03-26T00:27:48.972Z,7.34
2018-03-26T00:28:48.956Z,7.37
2018-03-26T00:29:48.922Z,7.36
2018-03-26T00:30:48.890Z,7.41
2018-03-26T00:31:48.902Z,7.34
2018-03-26T00:32:48.838Z,7.41
2018-03-26T00:33:48.816Z,7.33
2018-03-26T00:34:48.890Z,7.34
2018-03-26T00:35:48.755Z,7.26
2018-03-26T00:36:48.725Z,7.26
2018-03-26T00:37:48.723Z,7.29
2018-03-26T00:38:48.677Z,7.16
2018-03-26T00:39:48.642Z,7.18
2018-03-26T00:40:48.615Z,7.21
2018-03-26T00:41:48.592Z,7.30
2018-03-26T00:42:48.571Z,7.23
2018-03-26T00:43:48.538Z,7.16
2018-03-26T00:44:48.514Z,7.13
2018-03-26T00:45:48.474Z,7.18
2018-03-26T00:46:48.459Z,7.21
2018-03-26T00:47:48.431Z,7.19
2018-03-26T00:48:48.400Z,7.12
2018-03-26T00:49:48.366Z,7.18
2018-03-26T00:50:48.343Z,7.03
2018-03-26T00:51:48.310Z,7.18
2018-03-26T00:52:48.286Z,7.09
2018-03-26T00:53:48.256Z,7.05
2018-03-26T00:54:48.229Z,7.09
2018-03-26T00:55:48.192Z,7.09
2018-03-26T00:56:48.173Z,7.04
2018-03-26T00:57:48.507Z,6.98
2018-03-26T00:58:48.112Z,6.98
2018-03-26T00:59:48.082Z,7.09
2018-03-26T01:00:48.059Z,7.09
2018-03-26T01:01:48.028Z,7.09
2018-03-26T01:02:47.999Z,7.16
2018-03-26T01:03:47.972Z,7.03
2018-03-26T01:04:47.944Z,7.01
2018-03-26T01:05:47.919Z,7.03
2018-03-26T01:06:47.893Z,7.08
2018-03-26T01:07:47.858Z,7.05
2018-03-26T01:08:47.827Z,7.05
2018-03-26T01:09:47.830Z,7.16
2018-03-26T01:10:47.774Z,7.08
2018-03-26T01:11:47.746Z,7.19
2018-03-26T01:12:47.713Z,7.09
2018-03-26T01:13:47.689Z,7.12
2018-03-26T01:14:47.660Z,7.16
2018-03-26T01:15:47.629Z,7.09
2018-03-26T01:16:47.609Z,6.95
2018-03-26T01:17:47.580Z,7.03
2018-03-26T01:18:47.551Z,6.95
2018-03-26T01:19:47.515Z,7.03
2018-03-26T01:20:47.495Z,6.95
2018-03-26T01:21:47.465Z,6.94
2018-03-26T01:22:47.435Z,7.01
2018-03-26T01:23:47.406Z,6.97
2018-03-26T01:24:47.383Z,6.97
2018-03-26T01:25:47.354Z,6.88
2018-03-26T01:26:47.324Z,6.90
2018-03-26T01:27:47.301Z,6.88
2018-03-26T01:28:47.264Z,6.88
2018-03-26T01:29:47.246Z,6.83
2018-03-26T01:30:47.211Z,6.88
2018-03-26T01:31:47.182Z,6.86
2018-03-26T01:32:47.155Z,6.83
2018-03-26T01:33:47.121Z,6.94
2018-03-26T01:34:47.100Z,6.88
2018-03-26T01:35:47.071Z,6.88
2018-03-26T01:36:47.039Z,6.80
2018-03-26T01:37:47.091Z,6.76
2018-03-26T01:38:46.994Z,6.80
2018-03-26T01:39:46.952Z,6.90
2018-03-26T01:40:46.926Z,6.86
2018-03-26T01:41:46.906Z,6.93
2018-03-26T01:42:46.878Z,6.82
2018-03-26T01:43:47.697Z,6.79
2018-03-26T01:44:46.818Z,6.86
2018-03-26T01:45:46.783Z,6.93
2018-03-26T01:46:46.754Z,6.70
2018-03-26T01:47:46.729Z,6.76
2018-03-26T01:48:46.728Z,6.67
2018-03-26T01:49:46.676Z,6.73
2018-03-26T01:50:46.643Z,6.76
2018-03-26T01:51:46.611Z,6.78
2018-03-26T01:52:46.594Z,6.79
2018-03-26T01:53:46.560Z,6.79
2018-03-26T01:54:46.525Z,6.79
2018-03-26T01:55:46.506Z,6.72
2018-03-26T01:56:46.473Z,6.68
2018-03-26T01:57:46.441Z,6.73
2018-03-26T01:58:46.419Z,6.75
2018-03-26T01:59:46.386Z,6.73
2018-03-26T02:00:46.360Z,6.64
2018-03-26T02:01:46.339Z,6.62
2018-03-26T02:02:46.303Z,6.73
2018-03-26T02:03:46.277Z,6.72
2018-03-26T02:04:46.304Z,6.72
2018-03-26T02:05:46.220Z,6.64
2018-03-26T02:06:46.191Z,6.68
2018-03-26T02:07:46.184Z,6.62
2018-03-26T02:08:46.134Z,6.62
2018-03-26T02:09:46.097Z,6.60
2018-03-26T02:10:46.092Z,6.55
2018-03-26T02:11:46.047Z,6.49
2018-03-26T02:12:46.019Z,6.55
2018-03-26T02:13:45.986Z,6.57
2018-03-26T02:14:45.955Z,6.55
2018-03-26T02:15:45.932Z,6.61
2018-03-26T02:16:45.897Z,6.61
2018-03-26T02:17:45.876Z,6.54
2018-03-26T02:18:45.848Z,6.54
2018-03-26T02:19:45.812Z,6.54
2018-03-26T02:20:45.785Z,6.58
2018-03-26T02:21:45.760Z,6.49
2018-03-26T02:22:45.733Z,6.44
2018-03-26T02:23:45.704Z,6.46
2018-03-26T02:24:45.675Z,6.54
2018-03-26T02:25:45.643Z,6.44
2018-03-26T02:26:45.615Z,6.52
2018-03-26T02:27:45.608Z,6.42
2018-03-26T02:28:45.560Z,6.39
2018-03-26T02:29:45.535Z,6.52
2018-03-26T02:30:45.510Z,6.46
2018-03-26T02:31:45.473Z,6.37
2018-03-26T02:32:45.439Z,6.42
2018-03-26T02:33:45.416Z,6.46
2018-03-26T02:34:45.408Z,6.40
2018-03-26T02:35:45.354Z,6.39
2018-03-26T02:36:45.360Z,6.52
2018-03-26T02:37:45.307Z,6.51
2018-03-26T02:38:45.285Z,6.37
2018-03-26T02:39:45.245Z,6.36
2018-03-26T02:40:45.220Z,6.34
2018-03-26T02:41:45.193Z,6.34
2018-03-26T02:42:45.185Z,6.36
2018-03-26T02:43:45.140Z,6.36
2018-03-26T02:44:45.101Z,6.29
2018-03-26T02:45:45.081Z,6.33
2018-03-26T02:46:45.045Z,6.31
2018-03-26T02:47:45.022Z,6.29
2018-03-26T02:48:44.989Z,6.31
2018-03-26T02:49:44.981Z,6.25
2018-03-26T02:50:44.959Z,6.29
2018-03-26T02:51:44.900Z,6.29
2018-03-26T02:52:44.874Z,6.26
2018-03-26T02:53:44.840Z,6.34
2018-03-26T02:54:44.814Z,6.26
2018-03-26T02:55:44.783Z,6.25
2018-03-26T02:56:44.758Z,6.26
2018-03-26T02:57:44.732Z,6.26
2018-03-26T02:58:44.695Z,6.13
2018-03-26T02:59:44.677Z,6.17
2018-03-26T03:00:44.653Z,6.26
2018-03-26T03:01:44.634Z,6.29
2018-03-26T03:02:44.593Z,6.15
2018-03-26T03:03:44.576Z,6.14
2018-03-26T03:04:44.543Z,6.07
2018-03-26T03:05:44.498Z,6.13
2018-03-26T03:06:44.469Z,6.14
2018-03-26T03:07:44.440Z,6.15
2018-03-26T03:08:44.410Z,6.14
2018-03-26T03:09:44.378Z,6.10
2018-03-26T03:10:44.377Z,6.07
2018-03-26T03:11:44.321Z,6.17
2018-03-26T03:12:44.297Z,6.17
2018-03-26T03:13:44.264Z,6.10
2018-03-26T03:14:44.238Z,6.13
2018-03-26T03:15:44.210Z,6.09
2018-03-26T03:16:44.184Z,6.00
2018-03-26T03:17:44.153Z,6.03
2018-03-26T03:18:44.132Z,6.00
2018-03-26T03:19:44.134Z,6.02
2018-03-26T03:20:44.110Z,6.00
2018-03-26T03:21:44.094Z,5.88
2018-03-26T03:22:44.199Z,5.98
2018-03-26T03:23:44.051Z,5.95
2018-03-26T03:24:44.009Z,5.99
2018-03-26T03:25:43.917Z,6.07
2018-03-26T03:26:43.901Z,5.92
2018-03-26T03:27:43.873Z,5.95
2018-03-26T03:28:43.831Z,5.95
2018-03-26T03:29:43.808Z,5.92
2018-03-26T03:30:43.768Z,5.88
2018-03-26T03:31:43.751Z,5.82
2018-03-26T03:32:43.718Z,5.95
2018-03-26T03:33:43.691Z,6.05
2018-03-26T03:34:43.661Z,6.05
2018-03-26T03:35:43.623Z,5.96
2018-03-26T03:36:43.600Z,6.06
2018-03-26T03:37:43.571Z,5.87
2018-03-26T03:38:43.541Z,5.89
2018-03-26T03:39:43.509Z,5.91
2018-03-26T03:40:43.476Z,5.85
2018-03-26T03:41:43.458Z,5.80
2018-03-26T03:42:43.428Z,5.77
2018-03-26T03:43:43.392Z,5.77
2018-03-26T03:44:43.377Z,5.81
2018-03-26T03:45:43.388Z,5.87
2018-03-26T03:46:43.313Z,5.82
2018-03-26T03:47:43.289Z,5.87
2018-03-26T03:48:43.253Z,5.87
2018-03-26T03:49:43.215Z,5.80
2018-03-26T03:50:43.188Z,5.81
2018-03-26T03:51:43.179Z,5.82
2018-03-26T03:52:43.135Z,5.77
2018-03-26T03:53:43.114Z,5.75
2018-03-26T03:54:43.072Z,5.80
2018-03-26T03:55:43.041Z,5.85
2018-03-26T03:56:43.014Z,5.77
2018-03-26T03:57:42.991Z,5.89
2018-03-26T03:58:43.001Z,5.87
2018-03-26T03:59:42.930Z,5.80
2018-03-26T04:00:42.909Z,5.75
2018-03-26T04:01:42.881Z,5.72
2018-03-26T04:02:42.842Z,5.80
2018-03-26T04:03:42.818Z,5.75
2018-03-26T04:04:42.804Z,5.72
2018-03-26T04:05:42.752Z,5.78
2018-03-26T04:06:42.723Z,5.78
2018-03-26T04:07:42.695Z,5.80
2018-03-26T04:08:42.669Z,5.72
2018-03-26T04:09:42.639Z,5.87
2018-03-26T04:10:42.611Z,5.89
2018-03-26T04:11:42.580Z,5.85
2018-03-26T04:12:42.554Z,5.87
2018-03-26T04:13:42.524Z,5.75
2018-03-26T04:14:42.492Z,5.78
2018-03-26T04:15:43.000Z,5.89
2018-03-26T04:16:42.439Z,5.87
2018-03-26T04:17:42.408Z,5.84
2018-03-26T04:18:42.383Z,5.87
2018-03-26T04:19:42.343Z,5.81
2018-03-26T04:20:42.317Z,5.87
2018-03-26T04:21:42.303Z,5.77
2018-03-26T04:22:42.274Z,5.82
2018-03-26T04:23:42.233Z,5.87
2018-03-26T04:24:42.202Z,5.87
2018-03-26T04:25:42.186Z,5.80
2018-03-26T04:26:42.146Z,5.82
2018-03-26T04:27:42.116Z,5.80
2018-03-26T04:28:42.097Z,5.70
2018-03-26T04:29:42.058Z,5.59
2018-03-26T04:30:42.041Z,5.57
2018-03-26T04:31:42.005Z,5.55
2018-03-26T04:32:41.975Z,5.60
2018-03-26T04:33:41.979Z,5.54
2018-03-26T04:34:41.920Z,5.63
2018-03-26T04:35:41.893Z,5.64
2018-03-26T04:36:41.858Z,5.54
2018-03-26T04:37:41.836Z,5.52
2018-03-26T04:38:41.805Z,5.44
2018-03-26T04:39:41.764Z,5.42
2018-03-26T04:40:41.735Z,5.41
2018-03-26T04:41:41.745Z,5.45
2018-03-26T04:42:41.731Z,5.42
2018-03-26T04:43:41.656Z,5.42
2018-03-26T04:44:41.625Z,5.46
2018-03-26T04:45:41.619Z,5.42
2018-03-26T04:46:41.563Z,5.52
2018-03-26T04:47:41.537Z,5.57
2018-03-26T04:48:41.546Z,5.75
2018-03-26T04:49:41.482Z,5.80
2018-03-26T04:50:41.455Z,5.77
2018-03-26T04:51:41.415Z,5.81
2018-03-26T04:52:41.401Z,5.84
2018-03-26T04:53:41.361Z,5.75
2018-03-26T04:54:41.325Z,5.66
2018-03-26T04:55:41.307Z,5.77
2018-03-26T04:56:41.284Z,5.60
2018-03-26T04:57:41.247Z,5.57
2018-03-26T04:58:41.256Z,5.45
2018-03-26T04:59:41.207Z,5.42
2018-03-26T05:00:41.178Z,5.44
2018-03-26T05:01:41.127Z,5.45
2018-03-26T05:02:41.095Z,5.64
2018-03-26T05:03:41.066Z,5.55
2018-03-26T05:04:41.044Z,5.60
2018-03-26T05:05:41.011Z,5.54
2018-03-26T05:06:40.985Z,5.44
2018-03-26T05:07:40.956Z,5.59
2018-03-26T05:08:40.930Z,5.52
2018-03-26T05:09:40.904Z,5.55
2018-03-26T05:10:40.872Z,5.54
2018-03-26T05:11:40.831Z,5.52
2018-03-26T05:12:40.809Z,5.48
2018-03-26T05:13:40.791Z,5.46
2018-03-26T05:14:40.743Z,5.59
2018-03-26T05:15:40.731Z,5.52
2018-03-26T05:16:40.696Z,5.45
2018-03-26T05:17:40.662Z,5.64
2018-03-26T05:18:40.635Z,5.52
2018-03-26T05:19:40.625Z,5.64
2018-03-26T05:20:40.577Z,5.66
2018-03-26T05:21:40.538Z,5.67
2018-03-26T05:22:40.570Z,5.75
2018-03-26T05:23:40.477Z,5.66
2018-03-26T05:24:40.453Z,5.57
2018-03-26T05:25:40.426Z,5.67
2018-03-26T05:26:40.402Z,5.59
2018-03-26T05:27:40.364Z,5.60
2018-03-26T05:28:40.332Z,5.70
2018-03-26T05:29:40.318Z,5.64
2018-03-26T05:30:40.282Z,5.51
2018-03-26T05:31:40.253Z,5.55
2018-03-26T05:32:40.243Z,5.46
2018-03-26T05:33:40.208Z,5.57
2018-03-26T05:34:40.163Z,5.45
2018-03-26T05:35:40.140Z,5.44
2018-03-26T05:36:40.107Z,5.44
2018-03-26T05:37:40.081Z,5.42
2018-03-26T05:38:40.047Z,5.34
2018-03-26T05:39:40.038Z,5.31
2018-03-26T05:40:39.992Z,5.30
2018-03-26T05:41:39.956Z,5.26
2018-03-26T05:42:39.945Z,5.27
2018-03-26T05:43:39.897Z,5.28
2018-03-26T05:44:39.877Z,5.28
2018-03-26T05:45:39.838Z,5.34
2018-03-26T05:46:39.837Z,5.31
2018-03-26T05:47:39.788Z,5.30
2018-03-26T05:48:39.757Z,5.30
2018-03-26T05:49:39.718Z,5.27
2018-03-26T05:50:39.690Z,5.33
2018-03-26T05:51:39.662Z,5.30
2018-03-26T05:52:39.638Z,5.33
2018-03-26T05:53:39.609Z,5.28
2018-03-26T05:54:39.572Z,5.31
2018-03-26T05:55:39.553Z,5.39
2018-03-26T05:56:39.513Z,5.28
2018-03-26T05:57:39.493Z,5.31
2018-03-26T05:58:39.456Z,5.23
2018-03-26T05:59:39.430Z,5.39
2018-03-26T06:00:39.412Z,5.39
2018-03-26T06:01:39.372Z,5.46
2018-03-26T06:02:39.347Z,5.31
2018-03-26T06:03:39.310Z,5.36
2018-03-26T06:04:39.276Z,5.28
2018-03-26T06:05:39.257Z,5.31
2018-03-26T06:06:39.259Z,5.20
2018-03-26T06:07:39.230Z,5.18
2018-03-26T06:08:39.191Z,5.06
2018-03-26T06:09:39.132Z,5.10
2018-03-26T06:10:39.155Z,5.09
2018-03-26T06:11:39.081Z,5.15
2018-03-26T06:12:39.048Z,5.03
2018-03-26T06:13:39.016Z,5.05
2018-03-26T06:14:38.995Z,4.94
2018-03-26T06:15:38.958Z,4.98
2018-03-26T06:16:38.929Z,5.09
2018-03-26T06:17:38.896Z,5.02
2018-03-26T06:18:38.878Z,5.05
2018-03-26T06:19:38.842Z,5.00
2018-03-26T06:20:38.819Z,5.02
2018-03-26T06:21:38.780Z,5.00
2018-03-26T06:22:38.762Z,5.06
2018-03-26T06:23:38.737Z,5.10
2018-03-26T06:24:38.692Z,5.15
2018-03-26T06:25:38.671Z,5.15
2018-03-26T06:26:38.631Z,5.06
2018-03-26T06:27:38.604Z,4.95
2018-03-26T06:28:38.584Z,5.15
2018-03-26T06:29:38.546Z,5.06
2018-03-26T06:30:38.534Z,5.00
2018-03-26T06:31:40.106Z,5.00
2018-03-26T06:32:40.073Z,4.95
2018-03-26T06:33:40.105Z,5.02
2018-03-26T06:34:38.402Z,4.94
2018-03-26T06:35:38.384Z,4.87
2018-03-26T06:36:38.339Z,4.91
2018-03-26T06:37:38.323Z,4.83
2018-03-26T06:38:38.285Z,4.95
2018-03-26T06:39:38.247Z,4.87
2018-03-26T06:40:38.219Z,4.85
2018-03-26T06:41:38.182Z,4.91
2018-03-26T06:42:38.186Z,4.92
2018-03-26T06:43:46.262Z,4.98
2018-03-26T06:45:31.034Z,4.94
2018-03-26T06:46:30.948Z,5.03
2018-03-26T06:47:30.984Z,5.02
2018-03-26T06:48:30.894Z,5.03
2018-03-26T06:49:30.860Z,5.05
2018-03-26T06:50:30.828Z,4.92
2018-03-26T06:51:30.809Z,4.87
2018-03-26T06:52:30.788Z,4.83
2018-03-26T06:53:30.742Z,4.68
2018-03-26T06:54:30.745Z,4.68
2018-03-26T06:55:30.692Z,4.75
2018-03-26T06:56:30.671Z,4.75
2018-03-26T06:57:30.617Z,4.74
2018-03-26T06:58:30.599Z,4.64
2018-03-26T06:59:30.565Z,4.61
2018-03-26T07:00:30.529Z,4.60
2018-03-26T07:01:30.520Z,4.64
2018-03-26T07:02:30.493Z,4.60
2018-03-26T07:03:30.487Z,4.56
2018-03-26T07:04:30.421Z,4.61
2018-03-26T07:05:30.392Z,4.58
2018-03-26T07:06:30.355Z,4.57
2018-03-26T07:07:30.333Z,4.57
2018-03-26T07:08:30.298Z,4.50
2018-03-26T07:09:30.272Z,4.46
2018-03-26T07:10:30.246Z,4.53
2018-03-26T07:11:30.200Z,4.47
2018-03-26T07:12:30.214Z,4.53
2018-03-26T07:13:30.155Z,4.57
2018-03-26T07:14:30.114Z,4.56
2018-03-26T07:15:30.116Z,4.50
2018-03-26T07:16:30.057Z,4.47
2018-03-26T07:17:30.018Z,4.47
2018-03-26T07:18:29.995Z,4.51
2018-03-26T07:19:29.971Z,4.44
2018-03-26T07:20:29.949Z,4.42
2018-03-26T07:21:29.901Z,4.32
2018-03-26T07:22:29.869Z,4.39
2018-03-26T07:23:29.859Z,4.47
2018-03-26T07:24:29.814Z,4.47
2018-03-26T07:25:29.829Z,4.47
2018-03-26T07:26:29.757Z,4.54
2018-03-26T07:27:29.730Z,4.64
2018-03-26T07:28:29.697Z,4.58
2018-03-26T07:29:29.717Z,4.58
2018-03-26T07:30:29.637Z,4.60
2018-03-26T07:31:29.603Z,4.57
2018-03-26T07:32:29.575Z,4.57
2018-03-26T07:33:29.539Z,4.58
2018-03-26T07:34:29.507Z,4.64
2018-03-26T07:35:29.493Z,4.60
2018-03-26T07:36:29.457Z,4.68
2018-03-26T07:37:29.425Z,4.69
2018-03-26T07:38:29.390Z,4.83
2018-03-26T07:39:29.363Z,4.88
2018-03-26T07:40:29.340Z,4.90
2018-03-26T07:41:29.306Z,4.84
2018-03-26T07:42:29.282Z,5.05
2018-03-26T07:43:29.244Z,4.98
2018-03-26T07:44:29.337Z,5.00
2018-03-26T07:45:29.184Z,5.03
2018-03-26T07:46:29.155Z,5.05
2018-03-26T07:47:29.129Z,5.20
2018-03-26T07:48:29.096Z,5.27
2018-03-26T07:49:29.071Z,5.36
2018-03-26T07:50:29.037Z,5.51
2018-03-26T07:51:29.005Z,5.36
2018-03-26T07:52:28.974Z,5.44
2018-03-26T07:53:28.941Z,5.21
2018-03-26T07:54:28.915Z,5.03
2018-03-26T07:55:28.886Z,4.87
2018-03-26T07:56:28.850Z,4.72
2018-03-26T07:57:28.829Z,4.69
2018-03-26T07:58:28.795Z,4.83
2018-03-26T07:59:28.770Z,4.61
2018-03-26T08:00:28.740Z,4.48
2018-03-26T08:01:28.708Z,4.53
2018-03-26T08:02:28.672Z,4.33
2018-03-26T08:03:28.658Z,4.30
2018-03-26T08:04:28.615Z,4.32
2018-03-26T08:05:28.589Z,4.39
2018-03-26T08:06:28.549Z,4.30
2018-03-26T08:07:28.534Z,4.33
2018-03-26T08:08:28.494Z,4.33
2018-03-26T08:09:28.465Z,4.30
2018-03-26T08:10:28.447Z,4.33
2018-03-26T08:11:28.431Z,4.32
2018-03-26T08:12:28.379Z,4.36
2018-03-26T08:13:28.340Z,4.42
2018-03-26T08:14:28.311Z,4.47
2018-03-26T08:15:28.286Z,4.54
2018-03-26T08:16:28.252Z,4.56
2018-03-26T08:17:28.225Z,4.51
2018-03-26T08:18:28.192Z,4.42
2018-03-26T08:19:28.169Z,4.46
2018-03-26T08:20:28.137Z,4.56
2018-03-26T08:21:28.099Z,4.48
2018-03-26T08:22:28.111Z,4.42
2018-03-26T08:23:28.046Z,4.50
2018-03-26T08:24:28.015Z,4.47
2018-03-26T08:25:27.996Z,4.38
2018-03-26T08:26:27.968Z,4.30
2018-03-26T08:27:27.929Z,4.28
2018-03-26T08:28:27.899Z,4.28
2018-03-26T08:29:27.878Z,4.42
2018-03-26T08:30:27.829Z,4.76
2018-03-26T08:31:27.804Z,4.88
2018-03-26T08:32:27.800Z,4.78
2018-03-26T08:33:27.746Z,4.71
2018-03-26T08:34:27.711Z,4.75
2018-03-26T08:35:27.685Z,4.72
2018-03-26T08:36:27.711Z,4.64
2018-03-26T08:37:27.621Z,4.44
2018-03-26T08:38:27.589Z,4.26
2018-03-26T08:39:27.639Z,4.28
2018-03-26T08:40:27.540Z,4.17
2018-03-26T08:41:27.499Z,4.20
2018-03-26T08:42:27.513Z,4.24
2018-03-26T08:43:27.443Z,4.24
2018-03-26T08:44:27.414Z,4.21
2018-03-26T08:45:27.383Z,4.35
2018-03-26T08:46:27.351Z,4.35
2018-03-26T08:47:35.075Z,4.42
2018-03-26T08:49:32.773Z,4.47
2018-03-26T08:50:32.716Z,4.20
2018-03-26T08:52:25.633Z,4.44
2018-03-26T08:53:25.606Z,4.42
2018-03-26T08:54:25.536Z,4.58
2018-03-26T08:55:25.512Z,4.57
2018-03-26T08:56:25.485Z,4.54
2018-03-26T08:57:25.451Z,4.53
2018-03-26T08:58:25.429Z,4.50
2018-03-26T08:59:25.389Z,4.71
2018-03-26T09:00:25.371Z,4.94
2018-03-26T09:01:25.331Z,5.05
2018-03-26T09:02:25.308Z,5.20
2018-03-26T09:03:25.293Z,5.34
2018-03-26T09:04:25.247Z,5.26
2018-03-26T09:05:25.214Z,5.10
2018-03-26T09:06:25.192Z,4.91
2018-03-26T09:07:25.155Z,4.87
2018-03-26T09:08:25.116Z,4.85
2018-03-26T09:09:25.128Z,4.88
2018-03-26T09:10:25.070Z,4.92
2018-03-26T09:11:25.025Z,4.88
2018-03-26T09:12:25.002Z,4.87
2018-03-26T09:13:24.970Z,4.88
2018-03-26T09:14:24.948Z,4.78
2018-03-26T09:15:24.911Z,4.75
2018-03-26T09:16:24.883Z,4.84
2018-03-26T09:17:24.860Z,4.87
2018-03-26T09:18:24.817Z,4.72
2018-03-26T09:19:24.801Z,4.72
2018-03-26T09:20:24.772Z,4.83
2018-03-26T09:21:24.733Z,4.84
2018-03-26T09:22:24.707Z,5.02
2018-03-26T09:23:24.673Z,4.98
2018-03-26T09:24:24.639Z,5.08
2018-03-26T09:25:24.621Z,5.03
2018-03-26T09:26:24.582Z,5.16
2018-03-26T09:27:24.550Z,5.12
2018-03-26T09:28:24.528Z,5.15
2018-03-26T09:29:24.490Z,5.08
2018-03-26T09:30:24.465Z,5.05
2018-03-26T09:31:24.460Z,5.15
2018-03-26T09:32:24.425Z,5.10
2018-03-26T09:33:24.391Z,5.23
2018-03-26T09:34:24.347Z,5.27
2018-03-26T09:35:24.316Z,5.42
2018-03-26T09:36:24.289Z,5.45
2018-03-26T09:37:24.258Z,5.57
2018-03-26T09:38:24.224Z,5.46
2018-03-26T09:39:24.208Z,5.46
2018-03-26T09:40:24.166Z,5.39
2018-03-26T09:41:24.142Z,5.41
2018-03-26T09:42:24.147Z,5.44
2018-03-26T09:43:24.103Z,5.33
2018-03-26T09:44:24.055Z,5.46
2018-03-26T09:45:24.019Z,5.41
2018-03-26T09:46:23.990Z,5.46
2018-03-26T09:47:23.962Z,5.59
2018-03-26T09:48:23.925Z,5.72
2018-03-26T09:49:23.902Z,5.82
2018-03-26T09:50:23.876Z,6.02
2018-03-26T09:51:23.846Z,5.84
2018-03-26T09:52:23.809Z,5.80
2018-03-26T09:53:23.782Z,5.73
2018-03-26T09:54:23.775Z,5.73
2018-03-26T09:55:23.717Z,5.80
2018-03-26T09:56:23.704Z,5.78
2018-03-26T09:57:23.661Z,5.88
2018-03-26T09:58:23.635Z,5.96
2018-03-26T09:59:23.603Z,6.03
2018-03-26T10:00:23.601Z,6.03
2018-03-26T10:01:23.550Z,6.13
2018-03-26T10:02:23.526Z,6.09
2018-03-26T10:03:23.482Z,6.18
2018-03-26T10:04:23.458Z,6.26
2018-03-26T10:05:23.435Z,6.33
2018-03-26T10:06:23.404Z,6.10
2018-03-26T10:07:23.372Z,6.13
2018-03-26T10:08:23.354Z,6.10
2018-03-26T10:09:23.309Z,6.15
2018-03-26T10:10:23.288Z,6.09
2018-03-26T10:11:23.264Z,6.31
2018-03-26T10:12:23.223Z,6.24
2018-03-26T10:13:23.192Z,6.14
2018-03-26T10:14:23.174Z,6.28
2018-03-26T10:15:23.133Z,6.31
2018-03-26T10:16:23.105Z,6.37
2018-03-26T10:17:23.085Z,6.39
2018-03-26T10:18:23.065Z,6.36
2018-03-26T10:19:23.017Z,6.40
2018-03-26T10:20:22.985Z,6.36
2018-03-26T10:21:22.972Z,6.36
2018-03-26T10:22:22.935Z,6.31
2018-03-26T10:23:22.904Z,6.37
2018-03-26T10:24:22.876Z,6.42
2018-03-26T10:25:22.854Z,6.39
2018-03-26T10:26:22.817Z,6.36
2018-03-26T10:27:22.793Z,6.47
2018-03-26T10:28:22.764Z,6.39
2018-03-26T10:29:22.738Z,6.47
2018-03-26T10:30:22.709Z,6.49
2018-03-26T10:31:22.673Z,6.42
2018-03-26T10:32:22.644Z,6.46
2018-03-26T10:33:22.613Z,6.47
2018-03-26T10:34:22.595Z,6.51
2018-03-26T10:35:22.558Z,6.61
2018-03-26T10:36:22.534Z,6.76
2018-03-26T10:37:22.499Z,6.75
2018-03-26T10:38:22.474Z,6.78
2018-03-26T10:39:22.446Z,6.76
2018-03-26T10:40:22.446Z,6.76
2018-03-26T10:41:22.382Z,6.80
2018-03-26T10:42:22.361Z,6.76
2018-03-26T10:43:22.370Z,6.76
2018-03-26T10:44:22.298Z,6.86
2018-03-26T10:45:22.305Z,6.85
2018-03-26T10:46:22.237Z,6.94
2018-03-26T10:47:22.217Z,7.01
2018-03-26T10:48:22.181Z,6.94
2018-03-26T10:49:22.155Z,6.94
2018-03-26T10:50:22.125Z,6.95
2018-03-26T10:51:22.103Z,6.88
2018-03-26T10:52:22.064Z,6.83
2018-03-26T10:53:22.044Z,6.85
2018-03-26T10:54:22.011Z,6.83
2018-03-26T10:55:21.986Z,6.88
2018-03-26T10:56:21.955Z,6.90
2018-03-26T10:57:21.934Z,6.90
2018-03-26T10:58:21.900Z,6.83
2018-03-26T10:59:21.882Z,6.86
2018-03-26T11:00:21.840Z,6.86
2018-03-26T11:01:21.818Z,6.82
2018-03-26T11:02:21.784Z,6.93
2018-03-26T11:03:21.752Z,7.00
2018-03-26T11:04:21.721Z,7.13
2018-03-26T11:05:21.701Z,7.11
2018-03-26T11:06:21.681Z,7.18
2018-03-26T11:07:21.635Z,7.19
2018-03-26T11:08:21.611Z,7.22
2018-03-26T11:09:21.623Z,7.01
2018-03-26T11:10:21.559Z,7.05
2018-03-26T11:11:21.537Z,7.08
2018-03-26T11:12:21.505Z,7.01
2018-03-26T11:13:21.506Z,7.05
2018-03-26T11:14:21.457Z,7.18
2018-03-26T11:15:21.425Z,7.30
2018-03-26T11:16:21.378Z,7.36
2018-03-26T11:17:21.357Z,7.45
2018-03-26T11:18:21.326Z,7.52
2018-03-26T11:19:21.304Z,7.61
2018-03-26T11:20:21.275Z,7.52
2018-03-26T11:21:21.249Z,7.40
2018-03-26T11:22:21.223Z,7.48
2018-03-26T11:23:21.189Z,7.51
2018-03-26T11:24:21.162Z,7.48
2018-03-26T11:25:21.125Z,7.45
2018-03-26T11:26:21.102Z,7.51
2018-03-26T11:27:21.077Z,7.55
2018-03-26T11:28:21.045Z,7.49
2018-03-26T11:29:21.010Z,7.51
2018-03-26T11:30:20.981Z,7.51
2018-03-26T11:31:20.965Z,7.56
2018-03-26T11:32:20.970Z,7.59
2018-03-26T11:33:20.923Z,7.67
2018-03-26T11:34:20.872Z,7.82
2018-03-26T11:35:20.845Z,8.03
2018-03-26T11:36:20.894Z,8.06
2018-03-26T11:37:20.785Z,7.99
2018-03-26T11:38:20.764Z,7.91
2018-03-26T11:39:20.732Z,7.78
2018-03-26T11:40:20.700Z,7.78
2018-03-26T11:41:20.679Z,7.75
2018-03-26T11:42:20.685Z,7.74
2018-03-26T11:43:20.642Z,7.61
2018-03-26T11:44:20.599Z,7.71
2018-03-26T11:45:20.563Z,7.74
2018-03-26T11:46:20.545Z,7.68
2018-03-26T11:47:20.532Z,7.70
2018-03-26T11:48:20.479Z,7.64
2018-03-26T11:49:20.453Z,7.75
2018-03-26T11:50:20.438Z,7.74
2018-03-26T11:51:20.397Z,7.71
2018-03-26T11:52:20.455Z,7.68
2018-03-26T11:53:20.349Z,7.82
2018-03-26T11:54:20.320Z,7.77
2018-03-26T11:55:21.173Z,7.68
2018-03-26T11:56:20.266Z,7.82
2018-03-26T11:57:20.236Z,7.78
2018-03-26T11:58:20.200Z,7.83
2018-03-26T11:59:20.191Z,7.80
2018-03-26T12:00:20.155Z,7.92
2018-03-26T12:01:20.123Z,7.99
2018-03-26T12:02:20.103Z,8.03
2018-03-26T12:03:20.076Z,8.10
2018-03-26T12:04:20.050Z,8.16
2018-03-26T12:05:20.018Z,8.06
2018-03-26T12:06:19.985Z,7.99
2018-03-26T12:07:19.951Z,8.01
2018-03-26T12:08:19.943Z,8.01
2018-03-26T12:09:19.959Z,8.06
2018-03-26T12:10:19.871Z,8.14
2018-03-26T12:11:19.839Z,8.16
2018-03-26T12:12:19.812Z,8.17
2018-03-26T12:13:19.790Z,8.24
2018-03-26T12:14:19.759Z,8.28
2018-03-26T12:15:19.731Z,8.28
2018-03-26T12:16:19.709Z,8.26
2018-03-26T12:17:19.674Z,8.28
2018-03-26T12:18:19.653Z,8.28
2018-03-26T12:19:19.631Z,8.22
2018-03-26T12:20:19.594Z,8.26
2018-03-26T12:21:19.558Z,8.36
2018-03-26T12:22:19.537Z,8.36
2018-03-26T12:23:19.517Z,8.36
2018-03-26T12:24:19.494Z,8.40
2018-03-26T12:25:19.479Z,8.31
2018-03-26T12:26:19.438Z,8.32
2018-03-26T12:27:19.396Z,8.36
2018-03-26T12:28:19.375Z,8.24
2018-03-26T12:29:19.340Z,8.17
2018-03-26T12:30:19.379Z,8.13
2018-03-26T12:31:19.286Z,8.34
2018-03-26T12:32:19.261Z,8.26
2018-03-26T12:33:19.234Z,8.35
2018-03-26T12:34:19.218Z,8.31
2018-03-26T12:35:19.183Z,8.52
2018-03-26T12:36:19.152Z,8.50
2018-03-26T12:37:19.126Z,8.47
2018-03-26T12:38:19.095Z,8.42
2018-03-26T12:39:19.070Z,8.36
2018-03-26T12:40:19.045Z,8.43
2018-03-26T12:41:19.017Z,8.34
2018-03-26T12:42:19.000Z,8.39
2018-03-26T12:43:18.962Z,8.36
2018-03-26T12:44:19.040Z,8.49
2018-03-26T12:45:18.910Z,8.53
2018-03-26T12:46:18.882Z,8.61
2018-03-26T12:47:18.849Z,8.76
2018-03-26T12:48:18.862Z,8.87
2018-03-26T12:49:18.792Z,9.09
2018-03-26T12:50:18.777Z,9.03
2018-03-26T12:51:18.739Z,8.94
2018-03-26T12:52:18.713Z,9.08
2018-03-26T12:53:18.696Z,9.14
2018-03-26T12:54:18.686Z,9.21
2018-03-26T12:55:18.629Z,9.16
2018-03-26T12:56:18.611Z,9.04
2018-03-26T12:57:18.644Z,9.03
2018-03-26T12:58:18.554Z,9.26
2018-03-26T12:59:18.553Z,9.24
2018-03-26T13:00:18.498Z,9.24
2018-03-26T13:01:18.471Z,9.32
2018-03-26T13:02:18.447Z,9.30
2018-03-26T13:03:18.413Z,9.19
2018-03-26T13:04:18.388Z,9.21
2018-03-26T13:05:18.368Z,9.21
2018-03-26T13:06:18.367Z,9.14
2018-03-26T13:07:18.310Z,9.04
2018-03-26T13:08:18.283Z,8.90
2018-03-26T13:09:18.256Z,8.86
2018-03-26T13:10:18.229Z,8.87
2018-03-26T13:11:18.200Z,8.83
2018-03-26T13:12:18.201Z,8.80
2018-03-26T13:13:18.145Z,8.80
2018-03-26T13:14:18.120Z,8.89
2018-03-26T13:15:18.120Z,8.83
2018-03-26T13:16:18.068Z,8.71
2018-03-26T13:17:18.062Z,8.77
2018-03-26T13:18:18.097Z,8.82
2018-03-26T13:19:17.981Z,8.83
2018-03-26T13:20:17.958Z,9.01
2018-03-26T13:21:17.955Z,9.05